sensor_id;sensor_type;location;lat;lon;timestamp;P1;durP1;ratioP1;P2;durP2;ratioP2
61739;SDS011;47645;45.288;12.038;2023-03-31T00:02:12;16.8;;;10.7;;
61739;SDS011;47645;45.288;12.038;2023-03-31T00:12:13;12.3;;;8.0;;
61739;SDS011;47645;45.288;12.038;2023-03-31T00:22:18;18.4;;;11.8;;
61739;SDS011;47645;45.288;12.038;2023-03-31T00:32:15;24.4;;;15.2;;
61739;SDS011;47645;45.288;12.038;2023-03-31T00:42:16;24.7;;;16.8;;
61739;SDS011;47645;45.288;12.038;2023-03-31T00:52:18;25.1;;;16.9;;
61739;SDS011;47645;45.288;12.038;2023-03-31T01:02:19;23.1;;;15.8;;
61739;SDS011;47645;45.288;12.038;2023-03-31T01:12:18;22.7;;;15.3;;
61739;SDS011;47645;45.288;12.038;2023-03-31T01:32:25;25.3;;;16.1;;
61739;SDS011;47645;45.288;12.038;2023-03-31T01:42:21;26.6;;;18.0;;
61739;SDS011;47645;45.288;12.038;2023-03-31T01:52:22;25.2;;;16.6;;
61739;SDS011;47645;45.288;12.038;2023-03-31T02:02:23;27.5;;;17.7;;
61739;SDS011;47645;45.288;12.038;2023-03-31T02:12:23;30.2;;;17.6;;
61739;SDS011;47645;45.288;12.038;2023-03-31T02:22:25;27.3;;;18.7;;
61739;SDS011;47645;45.288;12.038;2023-03-31T02:32:25;27.8;;;18.6;;
61739;SDS011;47645;45.288;12.038;2023-03-31T02:42:25;27.3;;;17.9;;
61739;SDS011;47645;45.288;12.038;2023-03-31T02:52:29;26.4;;;16.4;;
61739;SDS011;47645;45.288;12.038;2023-03-31T03:02:29;25.4;;;17.3;;
61739;SDS011;47645;45.288;12.038;2023-03-31T03:12:28;27.5;;;18.2;;
61739;SDS011;47645;45.288;12.038;2023-03-31T03:22:28;26.9;;;18.1;;
61739;SDS011;47645;45.288;12.038;2023-03-31T03:32:29;29.5;;;20.2;;
61739;SDS011;47645;45.288;12.038;2023-03-31T03:42:29;31.9;;;20.6;;
61739;SDS011;47645;45.288;12.038;2023-03-31T03:52:30;20.9;;;14.4;;
61739;SDS011;47645;45.288;12.038;2023-03-31T04:02:31;29.0;;;20.1;;
61739;SDS011;47645;45.288;12.038;2023-03-31T04:12:32;24.1;;;17.0;;
61739;SDS011;47645;45.288;12.038;2023-03-31T04:22:34;29.2;;;19.7;;
61739;SDS011;47645;45.288;12.038;2023-03-31T04:32:35;26.0;;;19.2;;
61739;SDS011;47645;45.288;12.038;2023-03-31T04:42:35;27.0;;;18.6;;
61739;SDS011;47645;45.288;12.038;2023-03-31T04:52:35;29.2;;;19.2;;
61739;SDS011;47645;45.288;12.038;2023-03-31T05:02:36;29.8;;;19.9;;
61739;SDS011;47645;45.288;12.038;2023-03-31T05:12:37;27.2;;;18.9;;
61739;SDS011;47645;45.288;12.038;2023-03-31T05:22:38;28.4;;;18.9;;
61739;SDS011;47645;45.288;12.038;2023-03-31T05:32:38;28.4;;;18.8;;
61739;SDS011;47645;45.288;12.038;2023-03-31T05:42:39;31.4;;;20.8;;
61739;SDS011;47645;45.288;12.038;2023-03-31T05:52:39;30.5;;;20.5;;
61739;SDS011;47645;45.288;12.038;2023-03-31T06:02:40;29.8;;;19.9;;
61739;SDS011;47645;45.288;12.038;2023-03-31T06:12:45;30.2;;;19.6;;
61739;SDS011;47645;45.288;12.038;2023-03-31T06:22:42;31.6;;;20.5;;
61739;SDS011;47645;45.288;12.038;2023-03-31T06:32:43;30.8;;;20.4;;
61739;SDS011;47645;45.288;12.038;2023-03-31T06:42:43;40.3;;;22.7;;
61739;SDS011;47645;45.288;12.038;2023-03-31T06:52:44;35.0;;;21.3;;
61739;SDS011;47645;45.288;12.038;2023-03-31T07:02:45;38.5;;;20.2;;
61739;SDS011;47645;45.288;12.038;2023-03-31T07:12:46;32.9;;;19.0;;
61739;SDS011;47645;45.288;12.038;2023-03-31T07:22:47;29.9;;;17.6;;
61739;SDS011;47645;45.288;12.038;2023-03-31T07:32:48;30.5;;;18.5;;
61739;SDS011;47645;45.288;12.038;2023-03-31T07:42:48;30.1;;;18.9;;
61739;SDS011;47645;45.288;12.038;2023-03-31T07:52:49;33.8;;;21.9;;
61739;SDS011;47645;45.288;12.038;2023-03-31T08:02:50;37.3;;;22.5;;
61739;SDS011;47645;45.288;12.038;2023-03-31T08:12:51;41.1;;;24.8;;
61739;SDS011;47645;45.288;12.038;2023-03-31T08:22:51;38.3;;;23.9;;
61739;SDS011;47645;45.288;12.038;2023-03-31T08:32:52;28.7;;;19.0;;
61739;SDS011;47645;45.288;12.038;2023-03-31T08:42:54;40.6;;;27.3;;
61739;SDS011;47645;45.288;12.038;2023-03-31T08:52:58;37.9;;;24.7;;
61739;SDS011;47645;45.288;12.038;2023-03-31T09:02:55;31.3;;;21.4;;
61739;SDS011;47645;45.288;12.038;2023-03-31T09:12:56;35.7;;;21.1;;
61739;SDS011;47645;45.288;12.038;2023-03-31T09:22:59;28.5;;;18.7;;
61739;SDS011;47645;45.288;12.038;2023-03-31T09:33:02;26.8;;;17.5;;
61739;SDS011;47645;45.288;12.038;2023-03-31T09:43:00;28.8;;;19.6;;
61739;SDS011;47645;45.288;12.038;2023-03-31T09:53:00;22.4;;;15.2;;
61739;SDS011;47645;45.288;12.038;2023-03-31T10:03:03;25.8;;;17.9;;
61739;SDS011;47645;45.288;12.038;2023-03-31T10:13:02;29.7;;;19.4;;
61739;SDS011;47645;45.288;12.038;2023-03-31T10:23:03;28.8;;;19.0;;
61739;SDS011;47645;45.288;12.038;2023-03-31T10:33:05;23.2;;;15.7;;
61739;SDS011;47645;45.288;12.038;2023-03-31T10:43:08;25.7;;;15.9;;
61739;SDS011;47645;45.288;12.038;2023-03-31T10:53:10;25.9;;;14.4;;
61739;SDS011;47645;45.288;12.038;2023-03-31T11:03:11;24.1;;;14.4;;
61739;SDS011;47645;45.288;12.038;2023-03-31T11:13:09;24.4;;;15.1;;
61739;SDS011;47645;45.288;12.038;2023-03-31T11:23:11;21.2;;;12.8;;
61739;SDS011;47645;45.288;12.038;2023-03-31T11:33:16;23.8;;;13.8;;
61739;SDS011;47645;45.288;12.038;2023-03-31T11:43:13;24.4;;;12.9;;
61739;SDS011;47645;45.288;12.038;2023-03-31T11:53:13;16.5;;;10.2;;
61739;SDS011;47645;45.288;12.038;2023-03-31T12:03:14;18.2;;;10.4;;
61739;SDS011;47645;45.288;12.038;2023-03-31T12:13:26;15.9;;;8.1;;
61739;SDS011;47645;45.288;12.038;2023-03-31T12:23:16;14.6;;;7.9;;
61739;SDS011;47645;45.288;12.038;2023-03-31T12:33:18;12.0;;;5.9;;
61739;SDS011;47645;45.288;12.038;2023-03-31T12:43:23;12.9;;;6.3;;
61739;SDS011;47645;45.288;12.038;2023-03-31T12:53:20;16.2;;;5.7;;
61739;SDS011;47645;45.288;12.038;2023-03-31T13:03:35;7.9;;;3.6;;
61739;SDS011;47645;45.288;12.038;2023-03-31T13:13:21;12.8;;;4.0;;
61739;SDS011;47645;45.288;12.038;2023-03-31T13:23:22;11.7;;;4.9;;
61739;SDS011;47645;45.288;12.038;2023-03-31T13:38:25;11.8;;;5.7;;
61739;SDS011;47645;45.288;12.038;2023-03-31T13:43:59;13.9;;;5.6;;
61739;SDS011;47645;45.288;12.038;2023-03-31T13:53:29;16.0;;;9.2;;
61739;SDS011;47645;45.288;12.038;2023-03-31T14:03:26;17.4;;;10.5;;
61739;SDS011;47645;45.288;12.038;2023-03-31T14:13:26;20.0;;;10.8;;
61739;SDS011;47645;45.288;12.038;2023-03-31T14:23:29;21.4;;;10.2;;
61739;SDS011;47645;45.288;12.038;2023-03-31T14:33:31;18.6;;;8.3;;
61739;SDS011;47645;45.288;12.038;2023-03-31T14:43:29;17.6;;;8.2;;
61739;SDS011;47645;45.288;12.038;2023-03-31T14:53:29;21.2;;;7.6;;
61739;SDS011;47645;45.288;12.038;2023-03-31T15:03:30;14.6;;;6.5;;
61739;SDS011;47645;45.288;12.038;2023-03-31T15:13:33;17.3;;;8.4;;
61739;SDS011;47645;45.288;12.038;2023-03-31T15:23:34;22.2;;;9.1;;
61739;SDS011;47645;45.288;12.038;2023-03-31T15:33:35;72.6;;;35.4;;
61739;SDS011;47645;45.288;12.038;2023-03-31T15:43:41;17.0;;;6.0;;
61739;SDS011;47645;45.288;12.038;2023-03-31T15:53:36;17.9;;;6.3;;
61739;SDS011;47645;45.288;12.038;2023-03-31T16:03:37;15.2;;;4.7;;
61739;SDS011;47645;45.288;12.038;2023-03-31T16:13:37;20.2;;;6.2;;
61739;SDS011;47645;45.288;12.038;2023-03-31T16:23:40;10.0;;;3.5;;
61739;SDS011;47645;45.288;12.038;2023-03-31T16:33:51;8.8;;;3.6;;
61739;SDS011;47645;45.288;12.038;2023-03-31T16:43:39;9.4;;;5.1;;
61739;SDS011;47645;45.288;12.038;2023-03-31T16:53:41;12.8;;;4.3;;
61739;SDS011;47645;45.288;12.038;2023-03-31T17:03:41;15.8;;;5.4;;
61739;SDS011;47645;45.288;12.038;2023-03-31T17:13:42;11.8;;;6.6;;
61739;SDS011;47645;45.288;12.038;2023-03-31T17:23:43;15.3;;;7.0;;
61739;SDS011;47645;45.288;12.038;2023-03-31T17:33:44;13.5;;;6.1;;
61739;SDS011;47645;45.288;12.038;2023-03-31T17:43:45;13.6;;;6.3;;
61739;SDS011;47645;45.288;12.038;2023-03-31T17:53:45;15.3;;;5.7;;
61739;SDS011;47645;45.288;12.038;2023-03-31T18:03:46;16.4;;;6.5;;
61739;SDS011;47645;45.288;12.038;2023-03-31T18:13:49;20.9;;;7.6;;
61739;SDS011;47645;45.288;12.038;2023-03-31T18:23:51;17.5;;;7.6;;
61739;SDS011;47645;45.288;12.038;2023-03-31T18:33:51;13.9;;;7.4;;
61739;SDS011;47645;45.288;12.038;2023-03-31T18:43:51;14.3;;;6.9;;
61739;SDS011;47645;45.288;12.038;2023-03-31T18:53:50;8.2;;;4.4;;
61739;SDS011;47645;45.288;12.038;2023-03-31T19:03:51;21.1;;;9.0;;
61739;SDS011;47645;45.288;12.038;2023-03-31T19:13:54;18.1;;;10.1;;
61739;SDS011;47645;45.288;12.038;2023-03-31T19:23:53;32.3;;;14.9;;
61739;SDS011;47645;45.288;12.038;2023-03-31T19:33:53;26.9;;;14.4;;
61739;SDS011;47645;45.288;12.038;2023-03-31T19:43:54;21.0;;;11.5;;
61739;SDS011;47645;45.288;12.038;2023-03-31T19:53:56;16.8;;;9.6;;
61739;SDS011;47645;45.288;12.038;2023-03-31T20:03:56;19.6;;;11.4;;
61739;SDS011;47645;45.288;12.038;2023-03-31T20:13:57;24.7;;;13.7;;
61739;SDS011;47645;45.288;12.038;2023-03-31T20:23:58;21.4;;;14.3;;
61739;SDS011;47645;45.288;12.038;2023-03-31T20:33:58;20.1;;;14.2;;
61739;SDS011;47645;45.288;12.038;2023-03-31T20:43:59;24.6;;;16.2;;
61739;SDS011;47645;45.288;12.038;2023-03-31T20:54:00;32.0;;;20.5;;
61739;SDS011;47645;45.288;12.038;2023-03-31T21:04:01;34.8;;;22.1;;
61739;SDS011;47645;45.288;12.038;2023-03-31T21:14:01;34.4;;;23.3;;
61739;SDS011;47645;45.288;12.038;2023-03-31T21:24:02;30.8;;;20.0;;
61739;SDS011;47645;45.288;12.038;2023-03-31T21:34:03;17.9;;;11.8;;
61739;SDS011;47645;45.288;12.038;2023-03-31T21:44:03;35.4;;;20.5;;
61739;SDS011;47645;45.288;12.038;2023-03-31T21:54:06;30.8;;;18.2;;
61739;SDS011;47645;45.288;12.038;2023-03-31T22:04:05;27.5;;;16.9;;
61739;SDS011;47645;45.288;12.038;2023-03-31T22:14:06;27.5;;;17.6;;
61739;SDS011;47645;45.288;12.038;2023-03-31T22:24:07;29.3;;;18.9;;
61739;SDS011;47645;45.288;12.038;2023-03-31T22:34:07;33.2;;;21.9;;
61739;SDS011;47645;45.288;12.038;2023-03-31T22:44:08;39.1;;;23.9;;
61739;SDS011;47645;45.288;12.038;2023-03-31T22:54:10;31.2;;;21.3;;
61739;SDS011;47645;45.288;12.038;2023-03-31T23:04:09;24.2;;;16.1;;
61739;SDS011;47645;45.288;12.038;2023-03-31T23:14:10;20.7;;;13.5;;
61739;SDS011;47645;45.288;12.038;2023-03-31T23:24:11;30.0;;;20.8;;
61739;SDS011;47645;45.288;12.038;2023-03-31T23:34:13;24.2;;;15.7;;
61739;SDS011;47645;45.288;12.038;2023-03-31T23:44:13;27.7;;;19.1;;
61739;SDS011;47645;45.288;12.038;2023-03-31T23:54:13;40.1;;;25.3;;
